< < Back
Terminal Aerodrome Forecast


Current Version              Previous Versions:   1  2  3  4  5  6  7  8  9  

Terminal Aerodrome Forecast

871
FTUS44 KBMX 202000 AAA
TAFMGM
TAF AMD
KMGM 202025Z 2020/2118 24004KT P6SM VCTS SCT035CB
     FM210100 00000KT P6SM SKC
     FM211500 29004KT P6SM FEW045=

Latest METAR

961
SAUS80 KWBC 212100 RRA
MTRMGM
METAR KMGM 212053Z 23005KT 10SM CLR 36/21 A3006 RMK AO2 SLP176 T03560206
58023


USA.gov is the U.S. government's official web portal to all federal, state and local government web resources and services.